createdAt,value
2017-06-05T00:00:07.314Z,0
2017-06-05T00:01:16.911Z,0
2017-06-05T00:02:27.122Z,0
2017-06-05T00:03:37.045Z,0
2017-06-05T00:04:46.948Z,0
2017-06-05T00:05:56.564Z,0
2017-06-05T00:07:06.490Z,0
2017-06-05T00:08:16.099Z,0
2017-06-05T00:09:25.702Z,0
2017-06-05T00:10:35.602Z,0
2017-06-05T00:11:45.974Z,0
2017-06-05T00:12:55.260Z,0
2017-06-05T00:14:05.156Z,0
2017-06-05T00:15:15.057Z,0
2017-06-05T00:16:24.953Z,0
2017-06-05T00:17:33.938Z,0
2017-06-05T00:18:43.547Z,0
2017-06-05T00:19:53.457Z,0
2017-06-05T00:21:03.363Z,0
2017-06-05T00:22:12.656Z,0
2017-06-05T00:23:22.258Z,0
2017-06-05T00:24:31.863Z,0
2017-06-05T00:25:41.468Z,0
2017-06-05T00:26:50.774Z,0
2017-06-05T00:28:00.386Z,0
2017-06-05T00:29:10.442Z,0
2017-06-05T00:30:20.050Z,0
2017-06-05T00:31:29.952Z,0
2017-06-05T00:32:39.855Z,0
2017-06-05T00:33:49.769Z,0
2017-06-05T00:34:59.827Z,0
2017-06-05T00:36:09.767Z,0
2017-06-05T00:37:19.699Z,0
2017-06-05T00:38:29.922Z,0
2017-06-05T00:39:40.136Z,0
2017-06-05T00:40:49.763Z,0
2017-06-05T00:41:59.365Z,0
2017-06-05T00:43:09.267Z,0
2017-06-05T00:44:18.556Z,0
2017-06-05T00:45:28.460Z,0
2017-06-05T00:46:38.666Z,0
2017-06-05T00:47:48.575Z,0
2017-06-05T00:48:58.185Z,0
2017-06-05T00:50:08.103Z,0
2017-06-05T00:51:17.715Z,0
2017-06-05T00:52:27.478Z,0
2017-06-05T00:53:37.080Z,0
2017-06-05T00:54:46.403Z,0
2017-06-05T00:55:56.002Z,0
2017-06-05T00:57:05.308Z,0
2017-06-05T00:58:15.676Z,0
2017-06-05T00:59:25.619Z,0
2017-06-05T01:00:35.523Z,0
2017-06-05T01:01:45.735Z,0
2017-06-05T01:02:55.643Z,0
2017-06-05T01:04:05.277Z,0
2017-06-05T01:05:14.583Z,0
2017-06-05T01:06:23.887Z,0
2017-06-05T01:07:34.089Z,0
2017-06-05T01:08:44.008Z,0
2017-06-05T01:09:54.377Z,0
2017-06-05T01:11:04.278Z,0
2017-06-05T01:12:14.191Z,0
2017-06-05T01:13:23.482Z,0
2017-06-05T01:14:33.385Z,0
2017-06-05T01:15:43.434Z,0
2017-06-05T01:16:53.651Z,0
2017-06-05T01:18:03.868Z,0
2017-06-05T01:19:13.155Z,0
2017-06-05T01:20:22.769Z,0
2017-06-05T01:21:32.513Z,0
2017-06-05T01:22:42.423Z,0
2017-06-05T01:23:52.340Z,0
2017-06-05T01:25:02.566Z,0
2017-06-05T01:26:12.770Z,0
2017-06-05T01:27:22.723Z,0
2017-06-05T01:28:31.730Z,0
2017-06-05T01:29:41.947Z,0
2017-06-05T01:30:51.858Z,0
2017-06-05T01:32:01.779Z,0
2017-06-05T01:33:11.379Z,0
2017-06-05T01:34:20.977Z,0
2017-06-05T01:35:31.198Z,0
2017-06-05T01:36:40.786Z,0
2017-06-05T01:37:50.699Z,0
2017-06-05T01:39:00.474Z,0
2017-06-05T01:40:10.401Z,0
2017-06-05T01:41:20.612Z,0
2017-06-05T01:42:30.214Z,0
2017-06-05T01:43:40.417Z,0
2017-06-05T01:44:50.029Z,0
2017-06-05T01:46:00.231Z,0
2017-06-05T01:47:09.832Z,0
2017-06-05T01:48:19.758Z,0
2017-06-05T01:49:28.749Z,0
2017-06-05T01:50:38.373Z,0
2017-06-05T01:51:48.275Z,0
2017-06-05T01:52:58.493Z,0
2017-06-05T01:54:08.698Z,0
2017-06-05T01:55:18.294Z,0
2017-06-05T01:56:28.195Z,0
2017-06-05T01:57:38.104Z,0
2017-06-05T01:58:48.327Z,0
2017-06-05T01:59:58.240Z,0
2017-06-05T02:01:07.834Z,0
2017-06-05T02:02:18.061Z,0
2017-06-05T02:03:27.973Z,0
2017-06-05T02:04:38.532Z,0
2017-06-05T02:05:48.129Z,0
2017-06-05T02:06:58.341Z,0
2017-06-05T02:08:07.634Z,0
2017-06-05T02:09:17.836Z,0
2017-06-05T02:10:27.431Z,0
2017-06-05T02:11:37.336Z,0
2017-06-05T02:12:46.932Z,0
2017-06-05T02:13:56.535Z,0
2017-06-05T02:15:06.139Z,0
2017-06-05T02:16:16.382Z,0
2017-06-05T02:17:25.990Z,0
2017-06-05T02:18:35.592Z,0
2017-06-05T02:19:45.549Z,0
2017-06-05T02:20:55.777Z,0
2017-06-05T02:22:05.679Z,0
2017-06-05T02:23:14.977Z,0
2017-06-05T02:24:24.883Z,0
2017-06-05T02:25:34.800Z,0
2017-06-05T02:26:45.035Z,0
2017-06-05T02:27:55.250Z,0
2017-06-05T02:29:05.157Z,0
2017-06-05T02:30:14.752Z,0
2017-06-05T02:31:25.018Z,0
2017-06-05T02:32:34.624Z,0
2017-06-05T02:33:44.247Z,0
2017-06-05T02:34:54.148Z,0
2017-06-05T02:36:04.372Z,0
2017-06-05T02:37:13.988Z,0
2017-06-05T02:38:24.193Z,0
2017-06-05T02:39:34.116Z,0
2017-06-05T02:40:44.049Z,0
2017-06-05T02:41:53.347Z,0
2017-06-05T02:43:02.642Z,0
2017-06-05T02:44:12.543Z,0
2017-06-05T02:45:22.770Z,0
2017-06-05T02:46:32.671Z,0
2017-06-05T02:47:42.604Z,0
2017-06-05T02:48:52.513Z,0
2017-06-05T02:50:02.443Z,0
2017-06-05T02:51:11.746Z,0
2017-06-05T02:52:21.655Z,0
2017-06-05T02:53:31.866Z,0
2017-06-05T02:54:41.612Z,0
2017-06-05T02:55:50.906Z,0
2017-06-05T02:57:00.504Z,4
2017-06-05T02:58:10.727Z,0
2017-06-05T02:59:20.646Z,4
2017-06-05T03:00:30.654Z,4
2017-06-05T03:01:40.264Z,4
2017-06-05T03:02:50.479Z,4
2017-06-05T03:04:00.693Z,4
2017-06-05T03:05:10.286Z,4
2017-06-05T03:06:19.895Z,4
2017-06-05T03:07:29.502Z,8
2017-06-05T03:08:39.406Z,8
2017-06-05T03:09:48.691Z,8
2017-06-05T03:10:58.603Z,8
2017-06-05T03:12:08.807Z,8
2017-06-05T03:13:18.707Z,12
2017-06-05T03:14:28.943Z,12
2017-06-05T03:15:38.844Z,12
2017-06-05T03:16:49.053Z,12
2017-06-05T03:17:59.147Z,12
2017-06-05T03:19:09.375Z,16
2017-06-05T03:20:19.277Z,16
2017-06-05T03:21:29.192Z,16
2017-06-05T03:22:39.792Z,20
2017-06-05T03:23:49.762Z,20
2017-06-05T03:24:59.362Z,24
2017-06-05T03:26:09.275Z,24
2017-06-05T03:27:19.479Z,24
2017-06-05T03:28:29.080Z,24
2017-06-05T03:29:39.343Z,32
2017-06-05T03:30:49.575Z,36
2017-06-05T03:31:59.795Z,36
2017-06-05T03:33:09.691Z,44
2017-06-05T03:34:19.289Z,48
2017-06-05T03:35:29.660Z,52
2017-06-05T03:36:39.869Z,60
2017-06-05T03:37:49.168Z,64
2017-06-05T03:38:58.782Z,68
2017-06-05T03:40:09.006Z,76
2017-06-05T03:41:18.753Z,80
2017-06-05T03:42:28.343Z,88
2017-06-05T03:43:38.254Z,92
2017-06-05T03:44:48.474Z,104
2017-06-05T03:45:58.067Z,108
2017-06-05T03:47:08.068Z,116
2017-06-05T03:48:17.966Z,120
2017-06-05T03:49:27.563Z,128
2017-06-05T03:50:37.779Z,136
2017-06-05T03:51:47.064Z,144
2017-06-05T03:52:57.373Z,156
2017-06-05T03:54:07.581Z,168
2017-06-05T03:55:17.791Z,180
2017-06-05T03:56:27.682Z,184
2017-06-05T03:57:36.968Z,180
2017-06-05T03:58:47.330Z,180
2017-06-05T03:59:56.929Z,184
2017-06-05T04:01:07.137Z,188
2017-06-05T04:02:17.048Z,188
2017-06-05T04:03:27.276Z,188
2017-06-05T04:04:37.347Z,184
2017-06-05T04:05:46.960Z,184
2017-06-05T04:06:56.871Z,184
2017-06-05T04:08:06.780Z,188
2017-06-05T04:09:16.990Z,188
2017-06-05T04:10:27.040Z,192
2017-06-05T04:11:36.947Z,196
2017-06-05T04:12:46.842Z,204
2017-06-05T04:13:56.442Z,212
2017-06-05T04:15:06.049Z,224
2017-06-05T04:16:15.345Z,236
2017-06-05T04:17:25.250Z,252
2017-06-05T04:18:35.469Z,264
2017-06-05T04:19:44.764Z,280
2017-06-05T04:20:54.068Z,288
2017-06-05T04:22:03.975Z,304
2017-06-05T04:23:13.901Z,316
2017-06-05T04:24:24.112Z,336
2017-06-05T04:25:34.317Z,356
2017-06-05T04:26:44.216Z,372
2017-06-05T04:27:54.428Z,376
2017-06-05T04:29:04.631Z,388
2017-06-05T04:30:14.534Z,396
2017-06-05T04:31:24.750Z,408
2017-06-05T04:32:34.652Z,412
2017-06-05T04:33:44.383Z,416
2017-06-05T04:34:54.290Z,424
2017-06-05T04:36:04.506Z,432
2017-06-05T04:37:14.098Z,444
2017-06-05T04:38:24.006Z,452
2017-06-05T04:39:34.073Z,456
2017-06-05T04:40:43.975Z,468
2017-06-05T04:41:53.876Z,496
2017-06-05T04:43:03.469Z,516
2017-06-05T04:44:13.067Z,536
2017-06-05T04:45:22.697Z,548
2017-06-05T04:46:32.897Z,560
2017-06-05T04:47:42.218Z,568
2017-06-05T04:48:52.117Z,572
2017-06-05T04:50:02.017Z,576
2017-06-05T04:51:12.267Z,580
2017-06-05T04:52:22.169Z,592
2017-06-05T04:53:32.385Z,608
2017-06-05T04:54:42.294Z,632
2017-06-05T04:55:52.204Z,652
2017-06-05T04:57:02.099Z,664
2017-06-05T04:58:12.310Z,672
2017-06-05T04:59:22.222Z,672
2017-06-05T05:00:31.833Z,684
2017-06-05T05:01:42.045Z,688
2017-06-05T05:02:52.334Z,680
2017-06-05T05:04:02.239Z,692
2017-06-05T05:05:11.846Z,712
2017-06-05T05:06:21.742Z,736
2017-06-05T05:07:31.649Z,752
2017-06-05T05:08:41.701Z,784
2017-06-05T05:09:51.001Z,832
2017-06-05T05:11:00.967Z,896
2017-06-05T05:12:10.872Z,972
2017-06-05T05:13:20.483Z,1000
2017-06-05T05:14:30.393Z,1024
2017-06-05T05:15:40.018Z,1092
2017-06-05T05:16:49.936Z,1112
2017-06-05T05:17:59.219Z,1008
2017-06-05T05:19:08.815Z,936
2017-06-05T05:20:19.121Z,916
2017-06-05T05:21:29.042Z,948
2017-06-05T05:22:39.256Z,988
2017-06-05T05:23:49.470Z,1024
2017-06-05T05:24:58.754Z,1076
2017-06-05T05:26:08.062Z,1144
2017-06-05T05:27:17.983Z,1204
2017-06-05T05:28:28.253Z,1236
2017-06-05T05:29:38.542Z,1284
2017-06-05T05:30:48.764Z,1412
2017-06-05T05:31:58.659Z,1504
2017-06-05T05:33:08.269Z,1528
2017-06-05T05:34:17.875Z,1764
2017-06-05T05:35:27.789Z,1792
2017-06-05T05:36:37.396Z,1484
2017-06-05T05:37:47.312Z,1460
2017-06-05T05:38:57.230Z,1392
2017-06-05T05:40:07.455Z,1364
2017-06-05T05:41:17.374Z,1404
2017-06-05T05:42:27.614Z,1360
2017-06-05T05:43:38.179Z,1264
2017-06-05T05:44:47.484Z,1204
2017-06-05T05:45:57.383Z,1200
2017-06-05T05:47:06.668Z,1212
2017-06-05T05:48:16.871Z,1276
2017-06-05T05:49:26.925Z,1316
2017-06-05T05:50:36.826Z,1576
2017-06-05T05:51:46.106Z,1908
2017-06-05T05:52:56.006Z,2068
2017-06-05T05:54:05.610Z,2152
2017-06-05T05:55:15.925Z,2332
2017-06-05T05:56:25.833Z,2340
2017-06-05T05:57:36.039Z,2288
2017-06-05T05:58:45.991Z,2384
2017-06-05T05:59:56.210Z,2336
2017-06-05T06:01:06.116Z,2416
2017-06-05T06:02:16.022Z,2324
2017-06-05T06:03:26.600Z,2128
2017-06-05T06:04:36.513Z,2124
2017-06-05T06:05:45.807Z,2232
2017-06-05T06:06:55.762Z,2252
2017-06-05T06:08:05.376Z,1984
2017-06-05T06:09:14.657Z,2224
2017-06-05T06:10:24.570Z,2168
2017-06-05T06:11:34.467Z,2280
2017-06-05T06:12:43.828Z,2388
2017-06-05T06:13:53.484Z,2328
2017-06-05T06:15:03.227Z,2324
2017-06-05T06:16:13.563Z,2336
2017-06-05T06:17:23.159Z,2332
2017-06-05T06:18:33.119Z,2408
2017-06-05T06:19:43.756Z,2492
2017-06-05T06:20:53.369Z,2560
2017-06-05T06:22:03.627Z,2412
2017-06-05T06:23:13.583Z,2572
2017-06-05T06:24:23.977Z,2664
2017-06-05T06:25:33.971Z,2652
2017-06-05T06:26:43.679Z,2632
2017-06-05T06:27:53.904Z,2480
2017-06-05T06:29:03.506Z,2340
2017-06-05T06:30:13.450Z,2380
2017-06-05T06:31:23.072Z,2324
2017-06-05T06:32:32.988Z,2212
2017-06-05T06:33:43.198Z,2376
2017-06-05T06:34:53.138Z,2192
2017-06-05T06:36:02.747Z,2176
2017-06-05T06:37:12.963Z,2280
2017-06-05T06:38:23.183Z,2220
2017-06-05T06:39:32.812Z,2260
2017-06-05T06:40:42.414Z,2252
2017-06-05T06:41:53.150Z,2300
2017-06-05T06:43:03.122Z,2376
2017-06-05T06:44:13.354Z,2420
2017-06-05T06:45:23.259Z,2452
2017-06-05T06:46:32.254Z,2464
2017-06-05T06:47:42.553Z,2716
2017-06-05T06:48:52.462Z,3468
2017-06-05T06:50:02.381Z,3824
2017-06-05T06:51:11.992Z,2964
2017-06-05T06:52:21.299Z,2956
2017-06-05T06:53:31.319Z,3960
2017-06-05T06:54:41.533Z,8016
2017-06-05T06:55:51.748Z,9180
2017-06-05T06:57:01.668Z,10540
2017-06-05T06:58:11.578Z,8364
2017-06-05T06:59:21.272Z,4988
2017-06-05T07:00:31.172Z,4312
2017-06-05T07:01:41.383Z,3716
2017-06-05T07:02:50.672Z,3804
2017-06-05T07:04:00.883Z,4044
2017-06-05T07:05:10.323Z,4008
2017-06-05T07:06:20.238Z,4124
2017-06-05T07:07:29.523Z,4260
2017-06-05T07:08:39.734Z,4468
2017-06-05T07:09:49.941Z,4524
2017-06-05T07:10:59.850Z,4544
2017-06-05T07:12:09.452Z,4776
2017-06-05T07:13:19.044Z,4908
2017-06-05T07:14:29.248Z,5136
2017-06-05T07:15:38.867Z,5124
2017-06-05T07:16:48.490Z,5412
2017-06-05T07:17:58.457Z,5400
2017-06-05T07:19:08.055Z,5352
2017-06-05T07:20:17.959Z,5400
2017-06-05T07:21:28.173Z,5272
2017-06-05T07:22:38.113Z,5196
2017-06-05T07:23:47.727Z,5636
2017-06-05T07:24:57.943Z,5280
2017-06-05T07:26:07.855Z,5704
2017-06-05T07:27:17.755Z,5776
2017-06-05T07:28:28.135Z,6076
2017-06-05T07:29:38.352Z,6668
2017-06-05T07:30:47.977Z,7788
2017-06-05T07:31:57.596Z,12712
2017-06-05T07:33:07.517Z,17464
2017-06-05T07:34:17.583Z,19456
2017-06-05T07:35:27.494Z,24128
2017-06-05T07:36:37.711Z,26752
2017-06-05T07:37:47.333Z,26016
2017-06-05T07:38:56.649Z,24576
2017-06-05T07:40:06.966Z,22880
2017-06-05T07:41:16.588Z,28928
2017-06-05T07:42:26.199Z,30784
2017-06-05T07:43:36.124Z,32192
2017-06-05T07:44:46.355Z,33792
2017-06-05T07:45:56.792Z,31232
2017-06-05T07:47:06.706Z,36640
2017-06-05T07:48:16.927Z,36672
2017-06-05T07:49:26.247Z,41792
2017-06-05T07:50:36.479Z,40256
2017-06-05T07:51:46.200Z,38304
2017-06-05T07:52:56.433Z,42400
2017-06-05T07:54:06.637Z,40832
2017-06-05T07:55:15.670Z,40384
2017-06-05T07:56:25.282Z,38144
2017-06-05T07:57:35.514Z,39328
2017-06-05T07:58:45.747Z,40896
2017-06-05T07:59:55.096Z,35936
2017-06-05T08:01:05.320Z,35552
2017-06-05T08:02:15.225Z,35840
2017-06-05T08:03:25.176Z,32992
2017-06-05T08:04:35.397Z,32544
2017-06-05T08:05:45.623Z,35136
2017-06-05T08:06:55.839Z,32832
2017-06-05T08:08:06.063Z,30336
2017-06-05T08:09:15.996Z,28928
2017-06-05T08:10:25.938Z,32704
2017-06-05T08:11:35.548Z,31104
2017-06-05T08:12:45.457Z,30944
2017-06-05T08:13:55.378Z,29376
2017-06-05T08:15:04.999Z,24160
2017-06-05T08:16:14.954Z,23680
2017-06-05T08:17:24.555Z,21440
2017-06-05T08:18:34.500Z,19488
2017-06-05T08:19:44.786Z,20192
2017-06-05T08:20:55.568Z,21600
2017-06-05T08:22:04.961Z,22080
2017-06-05T08:23:14.392Z,21728
2017-06-05T08:24:24.006Z,18744
2017-06-05T08:25:34.030Z,14552
2017-06-05T08:26:44.415Z,14780
2017-06-05T08:27:54.363Z,16296
2017-06-05T08:29:04.627Z,17756
2017-06-05T08:30:14.859Z,18148
2017-06-05T08:31:24.480Z,21408
2017-06-05T08:32:34.768Z,21568
2017-06-05T08:33:45.053Z,23808
2017-06-05T08:34:55.006Z,27488
2017-06-05T08:36:04.940Z,29568
2017-06-05T08:37:14.862Z,35584
2017-06-05T08:38:24.920Z,40416
2017-06-05T08:39:34.827Z,22688
2017-06-05T08:40:47.328Z,35520
2017-06-05T08:42:00.455Z,35392
2017-06-05T08:43:13.699Z,26592
2017-06-05T08:44:24.845Z,11644
2017-06-05T08:45:34.798Z,7492
2017-06-05T08:46:44.724Z,6996
2017-06-05T08:47:54.900Z,6060
2017-06-05T08:49:04.573Z,5444
2017-06-05T08:50:13.914Z,4900
2017-06-05T08:51:23.861Z,4520
2017-06-05T08:52:33.517Z,4432
2017-06-05T08:53:43.766Z,4496
2017-06-05T08:54:53.698Z,4244
2017-06-05T08:56:03.639Z,4028
2017-06-05T08:57:13.876Z,3900
2017-06-05T08:58:23.816Z,3912
2017-06-05T08:59:33.461Z,3688
2017-06-05T09:00:43.436Z,3528
2017-06-05T09:01:54.033Z,3312
2017-06-05T09:03:04.250Z,3204
2017-06-05T09:04:14.197Z,3268
2017-06-05T09:05:24.134Z,2996
2017-06-05T09:06:34.094Z,2684
2017-06-05T09:07:43.893Z,2596
2017-06-05T09:08:54.159Z,2396
2017-06-05T09:10:04.109Z,2340
2017-06-05T09:11:14.041Z,2644
2017-06-05T09:12:23.665Z,2628
2017-06-05T09:13:33.712Z,2484
2017-06-05T09:14:43.372Z,2196
2017-06-05T09:15:52.733Z,1948
2017-06-05T09:17:02.400Z,1840
2017-06-05T09:18:12.653Z,1984
2017-06-05T09:19:22.593Z,1972
2017-06-05T09:20:32.592Z,2068
2017-06-05T09:21:42.208Z,2212
2017-06-05T09:22:52.165Z,2248
2017-06-05T09:24:02.123Z,2064
2017-06-05T09:25:12.198Z,1928
2017-06-05T09:26:22.131Z,2020
2017-06-05T09:27:32.393Z,2152
2017-06-05T09:28:42.337Z,1960
2017-06-05T09:29:52.319Z,2164
2017-06-05T09:31:02.551Z,2368
2017-06-05T09:32:12.493Z,2496
2017-06-05T09:33:22.709Z,2664
2017-06-05T09:34:32.645Z,2020
2017-06-05T09:35:42.250Z,1464
2017-06-05T09:36:51.553Z,1564
2017-06-05T09:38:01.757Z,1504
2017-06-05T09:39:11.057Z,1360
2017-06-05T09:40:21.004Z,1268
2017-06-05T09:41:30.907Z,1180
2017-06-05T09:42:40.855Z,1172
2017-06-05T09:43:50.751Z,1176
2017-06-05T09:45:00.662Z,1084
2017-06-05T09:46:10.562Z,1012
2017-06-05T09:47:20.468Z,996
2017-06-05T09:48:30.105Z,956
2017-06-05T09:49:40.015Z,932
2017-06-05T09:50:49.937Z,940
2017-06-05T09:51:59.247Z,976
2017-06-05T09:53:09.460Z,944
2017-06-05T09:54:19.374Z,936
2017-06-05T09:55:28.720Z,916
2017-06-05T09:56:38.678Z,908
2017-06-05T09:57:48.311Z,976
2017-06-05T09:58:58.553Z,1068
2017-06-05T10:00:08.349Z,1060
2017-06-05T10:01:18.579Z,988
2017-06-05T10:02:28.207Z,920
2017-06-05T10:03:38.120Z,960
2017-06-05T10:04:48.363Z,1048
2017-06-05T10:05:58.280Z,992
2017-06-05T10:07:08.204Z,960
2017-06-05T10:08:18.134Z,920
2017-06-05T10:09:28.350Z,880
2017-06-05T10:10:38.279Z,840
2017-06-05T10:11:48.314Z,836
2017-06-05T10:12:58.551Z,804
2017-06-05T10:14:08.499Z,800
2017-06-05T10:15:18.726Z,792
2017-06-05T10:16:28.636Z,792
2017-06-05T10:17:38.591Z,772
2017-06-05T10:18:48.181Z,764
2017-06-05T10:19:57.508Z,760
2017-06-05T10:21:07.442Z,764
2017-06-05T10:22:17.394Z,792
2017-06-05T10:23:27.477Z,820
2017-06-05T10:24:37.080Z,784
2017-06-05T10:25:46.696Z,768
2017-06-05T10:26:56.908Z,760
2017-06-05T10:28:06.217Z,768
2017-06-05T10:29:15.995Z,748
2017-06-05T10:30:25.908Z,736
2017-06-05T10:31:35.817Z,728
2017-06-05T10:32:45.717Z,728
2017-06-05T10:33:55.628Z,744
2017-06-05T10:35:05.681Z,736
2017-06-05T10:36:15.605Z,708
2017-06-05T10:37:25.840Z,456
2017-06-05T10:38:34.820Z,676
2017-06-05T10:39:45.045Z,684
2017-06-05T10:40:55.049Z,688
2017-06-05T10:42:04.946Z,688
2017-06-05T10:43:14.851Z,716
2017-06-05T10:44:24.763Z,692
2017-06-05T10:45:34.682Z,680
2017-06-05T10:46:45.195Z,716
2017-06-05T10:47:54.820Z,780
2017-06-05T10:49:04.744Z,800
2017-06-05T10:50:14.398Z,804
2017-06-05T10:51:24.603Z,756
2017-06-05T10:52:34.310Z,696
2017-06-05T10:53:43.935Z,684
2017-06-05T10:54:54.156Z,684
2017-06-05T10:56:04.362Z,668
2017-06-05T10:57:14.292Z,640
2017-06-05T10:58:24.409Z,628
2017-06-05T10:59:34.322Z,620
2017-06-05T11:00:44.224Z,616
2017-06-05T11:01:54.177Z,616
2017-06-05T11:03:03.778Z,628
2017-06-05T11:04:13.674Z,624
2017-06-05T11:05:23.282Z,612
2017-06-05T11:06:33.493Z,604
2017-06-05T11:07:43.399Z,636
2017-06-05T11:08:53.310Z,656
2017-06-05T11:10:03.575Z,628
2017-06-05T11:11:13.821Z,600
2017-06-05T11:12:23.418Z,600
2017-06-05T11:13:33.360Z,612
2017-06-05T11:14:43.573Z,636
2017-06-05T11:15:53.482Z,656
2017-06-05T11:17:03.406Z,660
2017-06-05T11:18:13.318Z,664
2017-06-05T11:19:22.921Z,604
2017-06-05T11:20:31.910Z,792
2017-06-05T11:21:42.173Z,952
2017-06-05T11:22:52.119Z,1044
2017-06-05T11:24:01.727Z,988
2017-06-05T11:25:11.623Z,984
2017-06-05T11:26:21.240Z,1032
2017-06-05T11:27:31.469Z,992
2017-06-05T11:28:41.686Z,960
2017-06-05T11:29:51.591Z,952
2017-06-05T11:31:01.521Z,892
2017-06-05T11:32:11.436Z,864
2017-06-05T11:33:21.814Z,868
2017-06-05T11:34:31.413Z,716
2017-06-05T11:35:41.360Z,768
2017-06-05T11:36:51.574Z,824
2017-06-05T11:38:01.789Z,768
2017-06-05T11:39:11.713Z,712
2017-06-05T11:40:21.334Z,768
2017-06-05T11:41:31.549Z,736
2017-06-05T11:42:41.835Z,748
2017-06-05T11:43:51.438Z,800
2017-06-05T11:45:01.478Z,856
2017-06-05T11:46:11.069Z,900
2017-06-05T11:47:21.283Z,836
2017-06-05T11:48:31.194Z,908
2017-06-05T11:49:41.096Z,792
2017-06-05T11:50:51.307Z,744
2017-06-05T11:52:01.527Z,684
2017-06-05T11:53:11.116Z,660
2017-06-05T11:54:20.724Z,648
2017-06-05T11:55:30.008Z,636
2017-06-05T11:56:39.751Z,628
2017-06-05T11:57:49.663Z,636
2017-06-05T11:58:58.949Z,684
2017-06-05T12:00:08.544Z,700
2017-06-05T12:01:18.442Z,780
2017-06-05T12:02:28.401Z,836
2017-06-05T12:03:38.319Z,1056
2017-06-05T12:04:47.942Z,1012
2017-06-05T12:05:58.176Z,840
2017-06-05T12:07:08.388Z,776
2017-06-05T12:08:17.694Z,784
2017-06-05T12:09:27.609Z,788
2017-06-05T12:10:37.829Z,772
2017-06-05T12:11:47.452Z,780
2017-06-05T12:12:57.353Z,864
2017-06-05T12:14:07.099Z,860
2017-06-05T12:15:16.722Z,904
2017-06-05T12:16:26.044Z,992
2017-06-05T12:17:35.096Z,964
2017-06-05T12:18:44.993Z,856
2017-06-05T12:19:54.939Z,780
2017-06-05T12:21:05.160Z,564
2017-06-05T12:22:14.800Z,676
2017-06-05T12:23:24.414Z,560
2017-06-05T12:24:34.645Z,580
2017-06-05T12:25:44.246Z,608
2017-06-05T12:26:54.168Z,624
2017-06-05T12:28:03.456Z,764
2017-06-05T12:29:12.446Z,808
2017-06-05T12:30:22.040Z,864
2017-06-05T12:31:32.104Z,876
2017-06-05T12:32:42.007Z,952
2017-06-05T12:33:51.605Z,1040
2017-06-05T12:35:00.933Z,1040
2017-06-05T12:36:11.144Z,944
2017-06-05T12:37:20.787Z,888
2017-06-05T12:38:30.688Z,872
2017-06-05T12:39:40.610Z,892
2017-06-05T12:40:50.814Z,716
2017-06-05T12:42:00.711Z,836
2017-06-05T12:43:10.781Z,884
2017-06-05T12:44:20.693Z,836
2017-06-05T12:45:30.297Z,920
2017-06-05T12:46:39.906Z,1192
2017-06-05T12:47:49.500Z,1436
2017-06-05T12:49:00.065Z,1224
2017-06-05T12:50:09.656Z,1248
2017-06-05T12:51:19.582Z,1260
2017-06-05T12:52:29.787Z,1316
2017-06-05T12:53:39.703Z,1172
2017-06-05T12:54:50.076Z,1088
2017-06-05T12:56:00.009Z,812
2017-06-05T12:57:09.919Z,760
2017-06-05T12:58:19.537Z,816
2017-06-05T12:59:29.440Z,956
2017-06-05T13:00:39.668Z,944
2017-06-05T13:01:49.591Z,1080
2017-06-05T13:02:59.492Z,1108
2017-06-05T13:04:09.395Z,1080
2017-06-05T13:05:19.621Z,1068
2017-06-05T13:06:29.065Z,920
2017-06-05T13:07:39.282Z,912
2017-06-05T13:08:49.510Z,912
2017-06-05T13:09:59.414Z,1036
2017-06-05T13:11:09.031Z,1108
2017-06-05T13:12:19.338Z,1296
2017-06-05T13:13:28.945Z,1068
2017-06-05T13:14:38.553Z,884
2017-06-05T13:15:48.451Z,820
2017-06-05T13:16:58.664Z,864
2017-06-05T13:18:08.971Z,936
2017-06-05T13:19:18.599Z,960
2017-06-05T13:20:28.210Z,1068
2017-06-05T13:21:38.115Z,912
2017-06-05T13:22:47.430Z,948
2017-06-05T13:23:57.710Z,780
2017-06-05T13:25:06.988Z,788
2017-06-05T13:26:16.906Z,804
2017-06-05T13:27:26.820Z,916
2017-06-05T13:28:36.422Z,916
2017-06-05T13:29:46.132Z,992
2017-06-05T13:30:56.368Z,1196
2017-06-05T13:32:06.580Z,1408
2017-06-05T13:33:16.195Z,1492
2017-06-05T13:34:25.800Z,1524
2017-06-05T13:35:35.553Z,1444
2017-06-05T13:36:45.471Z,1352
2017-06-05T13:37:55.080Z,1284
2017-06-05T13:39:04.987Z,1280
2017-06-05T13:40:14.275Z,1300
2017-06-05T13:41:23.660Z,1516
2017-06-05T13:42:33.861Z,1812
2017-06-05T13:43:43.767Z,1840
2017-06-05T13:44:53.379Z,1704
2017-06-05T13:46:02.999Z,1816
2017-06-05T13:47:13.089Z,1688
2017-06-05T13:48:23.001Z,1476
2017-06-05T13:49:33.296Z,1528
2017-06-05T13:50:43.522Z,1492
2017-06-05T13:51:53.751Z,1272
2017-06-05T13:53:04.119Z,1144
2017-06-05T13:54:13.714Z,1176
2017-06-05T13:55:23.934Z,1080
2017-06-05T13:56:33.845Z,888
2017-06-05T13:57:44.056Z,668
2017-06-05T13:58:54.413Z,624
2017-06-05T14:00:04.327Z,616
2017-06-05T14:01:14.240Z,604
2017-06-05T14:02:24.453Z,624
2017-06-05T14:03:34.671Z,472
2017-06-05T14:04:44.929Z,508
2017-06-05T14:05:55.139Z,612
2017-06-05T14:07:05.356Z,644
2017-06-05T14:08:14.368Z,664
2017-06-05T14:09:23.973Z,600
2017-06-05T14:10:33.992Z,796
2017-06-05T14:11:42.986Z,672
2017-06-05T14:12:52.895Z,580
2017-06-05T14:14:01.886Z,720
2017-06-05T14:15:11.218Z,752
2017-06-05T14:16:21.440Z,852
2017-06-05T14:17:30.735Z,868
2017-06-05T14:18:40.346Z,1160
2017-06-05T14:19:49.674Z,1256
2017-06-05T14:20:59.961Z,1048
2017-06-05T14:22:09.912Z,1036
2017-06-05T14:23:19.826Z,1016
2017-06-05T14:24:29.724Z,896
2017-06-05T14:25:39.632Z,752
2017-06-05T14:26:49.533Z,684
2017-06-05T14:27:59.479Z,892
2017-06-05T14:29:09.412Z,796
2017-06-05T14:30:19.011Z,856
2017-06-05T14:31:28.611Z,972
2017-06-05T14:32:38.545Z,888
2017-06-05T14:33:48.188Z,1080
2017-06-05T14:34:58.403Z,960
2017-06-05T14:36:08.000Z,1212
2017-06-05T14:37:17.938Z,1236
2017-06-05T14:38:27.840Z,1264
2017-06-05T14:39:37.754Z,1392
2017-06-05T14:40:47.695Z,1412
2017-06-05T14:41:57.645Z,1184
2017-06-05T14:43:07.880Z,1308
2017-06-05T14:44:18.108Z,1212
2017-06-05T14:45:28.130Z,1004
2017-06-05T14:46:38.095Z,1184
2017-06-05T14:47:48.321Z,1352
2017-06-05T14:48:57.938Z,1256
2017-06-05T14:50:07.558Z,1204
2017-06-05T14:51:17.618Z,1144
2017-06-05T14:52:27.523Z,1072
2017-06-05T14:53:37.137Z,844
2017-06-05T14:54:46.779Z,820
2017-06-05T14:55:57.271Z,764
2017-06-05T14:57:07.335Z,696
2017-06-05T14:58:16.946Z,680
2017-06-05T14:59:27.160Z,668
2017-06-05T15:00:37.089Z,676
2017-06-05T15:01:46.992Z,724
2017-06-05T15:02:57.000Z,636
2017-06-05T15:04:06.616Z,712
2017-06-05T15:05:16.222Z,568
2017-06-05T15:06:26.125Z,660
2017-06-05T15:07:36.058Z,764
2017-06-05T15:08:46.857Z,828
2017-06-05T15:09:57.080Z,804
2017-06-05T15:11:07.294Z,844
2017-06-05T15:12:17.215Z,796
2017-06-05T15:13:27.427Z,732
2017-06-05T15:14:38.094Z,672
2017-06-05T15:15:48.691Z,568
2017-06-05T15:16:59.286Z,500
2017-06-05T15:18:09.214Z,596
2017-06-05T15:19:18.812Z,740
2017-06-05T15:20:28.785Z,588
2017-06-05T15:21:39.014Z,524
2017-06-05T15:22:48.633Z,624
2017-06-05T15:23:58.526Z,720
2017-06-05T15:25:08.730Z,760
2017-06-05T15:26:18.677Z,724
2017-06-05T15:27:28.888Z,620
2017-06-05T15:28:38.886Z,624
2017-06-05T15:29:48.799Z,672
2017-06-05T15:30:58.709Z,528
2017-06-05T15:32:08.642Z,520
2017-06-05T15:33:17.980Z,568
2017-06-05T15:34:28.464Z,576
2017-06-05T15:35:38.065Z,556
2017-06-05T15:36:48.318Z,528
2017-06-05T15:37:58.611Z,496
2017-06-05T15:39:08.585Z,472
2017-06-05T15:40:18.184Z,496
2017-06-05T15:41:28.089Z,544
2017-06-05T15:42:38.000Z,596
2017-06-05T15:43:47.643Z,624
2017-06-05T15:44:57.553Z,604
2017-06-05T15:46:07.493Z,764
2017-06-05T15:47:17.412Z,900
2017-06-05T15:48:27.034Z,912
2017-06-05T15:49:36.643Z,868
2017-06-05T15:50:46.874Z,872
2017-06-05T15:51:56.816Z,932
2017-06-05T15:53:06.427Z,1072
2017-06-05T15:54:16.085Z,1144
2017-06-05T15:55:25.689Z,1108
2017-06-05T15:56:35.911Z,1040
2017-06-05T15:57:45.820Z,912
2017-06-05T15:58:55.548Z,768
2017-06-05T16:00:05.173Z,588
2017-06-05T16:01:16.002Z,584